Time;durP1;ratioP1;P1;durP2;ratioP2;P2;SDS_P1;SDS_P2;PMS_P1;PMS_P2;Temp;Humidity;BMP_temperature;BMP_pressure;BME280_temperature;BME280_humidity;BME280_pressure;Samples;Min_cycle;Max_cycle;Signal;HPM_P1;HPM_P2
2023/09/23 00:01:22;;;;;;;1.50;0.10;;;;;;;10.90;100.00;99125.91;7400454;19;20015;-57
2023/09/23 00:03:48;;;;;;;0.20;0.10;;;;;;;11.08;100.00;99131.13;7400632;19;20014;-57
2023/09/23 00:06:15;;;;;;;0.30;0.30;;;;;;;10.85;100.00;99138.53;7397988;19;20006;-56
2023/09/23 00:08:41;;;;;;;1.75;0.55;;;;;;;10.73;100.00;99136.16;7393705;19;20025;-57
2023/09/23 00:11:08;;;;;;;0.30;0.20;;;;;;;10.82;100.00;99145.13;7396337;19;20011;-56
2023/09/23 00:13:35;;;;;;;0.82;0.57;;;;;;;10.82;100.00;99144.34;7398778;19;20097;-60
2023/09/23 00:16:09;;;;;;;0.10;0.10;;;;;;;10.84;100.00;99147.41;7395046;19;20007;-90
2023/09/23 00:18:35;;;;;;;0.32;0.28;;;;;;;10.74;100.00;99154.41;7394271;19;20483;-89
2023/09/23 00:21:05;;;;;;;0.32;0.25;;;;;;;10.74;100.00;99154.41;7396443;19;20129;-90
2023/09/23 00:23:32;;;;;;;1.90;0.93;;;;;;;10.72;100.00;99156.94;7392390;19;20041;-90
2023/09/23 00:26:00;;;;;;;0.50;0.22;;;;;;;10.69;100.00;99158.69;7393895;19;20022;-90
2023/09/23 00:28:28;;;;;;;1.88;0.20;;;;;;;10.71;100.00;99160.97;7397094;19;20050;-90
2023/09/23 00:31:05;;;;;;;0.55;0.30;;;;;;;10.72;100.00;99168.81;7396755;19;20027;-90
2023/09/23 00:33:37;;;;;;;1.00;0.40;;;;;;;10.70;100.00;99165.03;7396777;19;20078;-90
2023/09/23 00:36:08;;;;;;;0.57;0.47;;;;;;;10.71;100.00;99166.53;7394637;19;20026;-90
2023/09/23 00:38:35;;;;;;;2.13;0.57;;;;;;;10.85;100.00;99171.22;7394208;19;20123;-90
2023/09/23 00:41:12;;;;;;;0.25;0.10;;;;;;;10.68;100.00;99174.63;7398642;19;20015;-91
2023/09/23 00:43:40;;;;;;;0.98;0.55;;;;;;;10.67;100.00;99175.13;7394551;19;20022;-91
2023/09/23 00:46:06;;;;;;;1.05;0.30;;;;;;;10.61;100.00;99177.84;7396045;19;20032;-92
2023/09/23 00:48:38;;;;;;;0.20;0.20;;;;;;;10.57;100.00;99188.44;7394115;19;20420;-92
2023/09/23 00:51:06;;;;;;;6.60;0.57;;;;;;;10.56;100.00;99178.56;7397657;19;20014;-92
2023/09/23 00:53:35;;;;;;;3.10;0.28;;;;;;;10.68;100.00;99181.47;7395505;19;20015;-91
2023/09/23 00:56:02;;;;;;;4.57;0.57;;;;;;;11.17;100.00;99183.88;7393661;19;20014;-92
2023/09/23 00:58:29;;;;;;;3.40;0.20;;;;;;;11.83;100.00;99175.94;7394507;19;20583;-90
2023/09/23 01:00:56;;;;;;;0.52;0.28;;;;;;;11.31;100.00;99180.16;7393777;19;20019;-90
2023/09/23 01:03:23;;;;;;;0.10;0.10;;;;;;;13.57;100.00;99165.97;7398469;19;20022;-90
2023/09/23 01:06:11;;;;;;;0.73;0.63;;;;;;;12.29;100.00;99183.19;7394718;19;20035;-90
2023/09/23 01:08:39;;;;;;;0.50;0.50;;;;;;;11.34;100.00;99173.59;7393732;19;20022;-89
2023/09/23 01:11:07;;;;;;;0.38;0.32;;;;;;;12.00;100.00;99173.97;7399787;19;20037;-90
2023/09/23 01:13:34;;;;;;;0.25;0.25;;;;;;;14.47;100.00;99164.31;7395027;19;20074;-90
2023/09/23 01:16:06;;;;;;;0.20;0.10;;;;;;;12.24;100.00;99172.75;7393524;19;20047;-90
2023/09/23 01:18:34;;;;;;;0.85;0.52;;;;;;;11.10;100.00;99178.75;7393844;19;20401;-89
2023/09/23 01:21:02;;;;;;;0.30;0.30;;;;;;;11.04;100.00;99184.31;7395215;19;20534;-90
2023/09/23 01:23:34;;;;;;;0.20;0.20;;;;;;;11.43;100.00;99190.16;7394445;19;20018;-90
2023/09/23 01:26:00;;;;;;;0.65;0.20;;;;;;;10.80;100.00;99188.66;7394653;19;20022;-89
2023/09/23 01:28:26;;;;;;;2.63;0.55;;;;;;;10.70;100.00;99204.75;7391714;19;20014;-87
2023/09/23 01:30:52;;;;;;;0.98;0.20;;;;;;;10.58;100.00;99206.69;7394551;19;20022;-85
2023/09/23 01:33:18;;;;;;;1.50;0.30;;;;;;;13.41;100.00;99196.75;7392635;19;20034;-85
2023/09/23 01:35:45;;;;;;;0.15;0.15;;;;;;;12.42;100.00;99191.84;7392152;19;20396;-85
2023/09/23 01:38:15;;;;;;;2.03;0.20;;;;;;;11.06;100.00;99198.50;7394122;19;20014;-89
2023/09/23 01:40:43;;;;;;;1.00;0.75;;;;;;;10.72;100.00;99201.50;7394898;19;20019;-89
2023/09/23 01:43:11;;;;;;;0.90;0.50;;;;;;;14.38;100.00;99187.03;7392829;19;20048;-90
2023/09/23 01:45:38;;;;;;;0.57;0.57;;;;;;;15.32;100.00;99193.97;7392073;19;20019;-90
2023/09/23 01:48:05;;;;;;;1.10;0.17;;;;;;;15.74;100.00;99191.28;7391058;19;20014;-89
2023/09/23 01:50:31;;;;;;;1.30;0.80;;;;;;;16.06;100.00;99188.63;7395931;19;20025;-89
2023/09/23 01:53:00;;;;;;;0.20;0.10;;;;;;;16.00;100.00;99193.56;7395453;19;20010;-90
2023/09/23 01:55:27;;;;;;;0.75;0.63;;;;;;;14.94;100.00;99187.44;7394598;19;20051;-89
2023/09/23 01:57:54;;;;;;;0.80;0.80;;;;;;;14.74;100.00;99188.59;7392296;19;20014;-89
2023/09/23 02:00:26;;;;;;;1.58;0.47;;;;;;;14.74;100.00;99191.41;7393423;19;20018;-89
2023/09/23 02:02:57;;;;;;;2.38;0.28;;;;;;;14.51;100.00;99198.41;7392996;19;20026;-89
2023/09/23 02:05:27;;;;;;;0.22;0.20;;;;;;;14.59;100.00;99191.00;7395790;19;20018;-89
2023/09/23 02:07:54;;;;;;;1.30;0.70;;;;;;;14.53;100.00;99204.25;7390105;19;20014;-89
2023/09/23 02:10:23;;;;;;;0.73;0.25;;;;;;;14.53;100.00;99192.31;7393037;19;20029;-90
2023/09/23 02:12:49;;;;;;;0.57;0.57;;;;;;;14.66;100.00;99201.63;7392736;19;20417;-88
2023/09/23 02:15:16;;;;;;;4.22;1.13;;;;;;;14.30;100.00;99203.63;7391140;19;20015;-89
2023/09/23 02:17:49;;;;;;;3.42;1.08;;;;;;;15.25;100.00;99206.53;7392395;19;20014;-89
2023/09/23 02:20:20;;;;;;;0.80;0.55;;;;;;;15.46;100.00;99212.53;7393075;19;20022;-89
2023/09/23 02:22:52;;;;;;;0.77;0.32;;;;;;;14.15;100.00;99208.75;7391803;19;20529;-88
2023/09/23 02:25:19;;;;;;;0.95;0.47;;;;;;;15.52;100.00;99222.41;7393120;19;20022;-89
2023/09/23 02:27:46;;;;;;;0.65;0.32;;;;;;;15.62;100.00;99217.19;7391447;19;20006;-89
2023/09/23 02:30:14;;;;;;;2.30;0.82;;;;;;;15.54;100.00;99219.84;7391707;19;20014;-89
2023/09/23 02:32:45;;;;;;;0.10;0.10;;;;;;;15.44;100.00;99224.25;7393087;19;20436;-89
2023/09/23 02:35:12;;;;;;;0.65;0.60;;;;;;;15.39;100.00;99221.47;7392282;19;20026;-89
2023/09/23 02:37:41;;;;;;;0.52;0.52;;;;;;;15.55;100.00;99232.56;7390727;19;20018;-89
2023/09/23 02:40:12;;;;;;;2.25;0.57;;;;;;;15.39;100.00;99235.50;7391568;19;20010;-90
2023/09/23 02:42:39;;;;;;;;;;;;;;;15.20;100.00;99244.56;7392022;19;20018;-89
2023/09/23 02:45:06;;;;;;;2.38;0.57;;;;;;;15.04;100.00;99245.47;7388156;19;19919;-89
2023/09/23 02:47:32;;;;;;;1.58;0.93;;;;;;;15.33;100.00;99243.22;7395689;19;20054;-89
2023/09/23 02:49:59;;;;;;;1.45;0.30;;;;;;;13.44;100.00;99258.06;7392090;19;20014;-89
2023/09/23 02:52:25;;;;;;;0.80;0.52;;;;;;;11.47;100.00;99268.75;7391699;19;20036;-89
2023/09/23 02:54:54;;;;;;;0.40;0.40;;;;;;;11.67;100.00;99277.03;7390117;19;20019;-89
2023/09/23 02:57:20;;;;;;;0.45;0.10;;;;;;;11.49;100.00;99285.75;7390076;19;20022;-89
2023/09/23 02:59:53;;;;;;;0.50;0.50;;;;;;;11.35;100.00;99284.59;7391437;19;20019;-89
2023/09/23 03:02:24;;;;;;;0.95;0.20;;;;;;;11.14;100.00;99285.19;7391328;19;20022;-90
2023/09/23 03:04:58;;;;;;;0.30;0.20;;;;;;;10.94;100.00;99291.59;7388407;19;20011;-90
2023/09/23 03:07:30;;;;;;;0.80;0.75;;;;;;;10.84;100.00;99293.00;7390232;19;20018;-88
2023/09/23 03:10:00;;;;;;;0.30;0.30;;;;;;;10.76;100.00;99302.28;7394607;19;20010;-87
2023/09/23 03:12:38;;;;;;;2.25;0.50;;;;;;;10.72;100.00;99312.88;7390677;19;20022;-88
2023/09/23 03:15:14;;;;;;;4.80;0.43;;;;;;;10.83;100.00;99313.00;7388418;19;20015;-88
2023/09/23 03:17:50;;;;;;;2.63;1.38;;;;;;;11.47;100.00;99316.16;7395808;19;20023;-89
2023/09/23 03:20:25;;;;;;;1.05;0.95;;;;;;;11.54;100.00;99312.91;7395009;19;20093;-89
2023/09/23 03:22:52;;;;;;;0.45;0.22;;;;;;;11.57;100.00;99311.91;7401037;19;20018;-89
2023/09/23 03:25:19;;;;;;;0.70;0.45;;;;;;;11.57;100.00;99317.47;7393673;19;20377;-89
2023/09/23 03:27:50;;;;;;;0.65;0.63;;;;;;;11.57;100.00;99314.69;7397001;19;20007;-89
2023/09/23 03:30:17;;;;;;;0.40;0.38;;;;;;;11.52;100.00;99329.34;7396276;19;20019;-88
2023/09/23 03:32:45;;;;;;;0.98;0.68;;;;;;;11.44;100.00;99334.63;7395921;19;20095;-89
2023/09/23 03:35:17;;;;;;;0.88;0.80;;;;;;;11.36;100.00;99324.41;7397914;19;20015;-89
2023/09/23 03:37:50;;;;;;;0.65;0.43;;;;;;;11.14;100.00;99329.78;7396372;19;20014;-90
2023/09/23 03:40:24;;;;;;;1.00;0.57;;;;;;;11.06;100.00;99339.84;7395736;19;20484;-90
2023/09/23 03:42:50;;;;;;;0.75;0.70;;;;;;;10.57;100.00;99341.56;7397183;19;20039;-91
2023/09/23 03:45:17;;;;;;;0.35;0.35;;;;;;;10.54;100.00;99348.13;7396345;19;20380;-90
2023/09/23 03:47:45;;;;;;;0.20;0.20;;;;;;;10.52;100.00;99349.88;7396069;19;20007;-92
2023/09/23 03:50:13;;;;;;;0.20;0.20;;;;;;;10.46;100.00;99366.47;7398552;19;20480;-92
2023/09/23 03:52:40;;;;;;;0.30;0.30;;;;;;;10.46;100.00;99365.72;7397289;19;20011;-91
2023/09/23 03:55:08;;;;;;;5.65;0.35;;;;;;;10.30;100.00;99364.25;7398310;19;20019;-91
2023/09/23 03:57:35;;;;;;;0.22;0.22;;;;;;;10.93;100.00;99368.06;7400948;19;20563;-91
2023/09/23 04:00:07;;;;;;;0.20;0.15;;;;;;;10.81;100.00;99371.19;7398808;19;20025;-90
2023/09/23 04:02:39;;;;;;;0.22;0.22;;;;;;;11.11;100.00;99370.53;7396210;19;20022;-90
2023/09/23 04:05:05;;;;;;;0.10;0.10;;;;;;;11.34;100.00;99369.50;7395456;19;20022;-89
2023/09/23 04:07:32;;;;;;;0.10;0.10;;;;;;;11.29;100.00;99372.22;7395323;19;20011;-90
2023/09/23 04:09:58;;;;;;;1.52;0.70;;;;;;;11.21;100.00;99369.13;7398905;19;20019;-90
2023/09/23 04:12:24;;;;;;;0.75;0.45;;;;;;;11.10;100.00;99376.59;7397584;19;20040;-89
2023/09/23 04:14:50;;;;;;;0.50;0.50;;;;;;;10.54;100.00;99381.53;7395388;19;20021;-89
2023/09/23 04:17:16;;;;;;;0.55;0.32;;;;;;;10.66;100.00;99388.00;7399438;19;20003;-87
2023/09/23 04:19:42;;;;;;;0.20;0.20;;;;;;;10.72;100.00;99385.28;7395628;19;20889;-88
2023/09/23 04:22:11;;;;;;;0.25;0.25;;;;;;;10.37;100.00;99391.66;7395168;19;20393;-87
2023/09/23 04:24:37;;;;;;;2.80;0.65;;;;;;;10.29;100.00;99396.09;7392919;19;20018;-88
2023/09/23 04:27:03;;;;;;;0.95;0.47;;;;;;;10.37;100.00;99402.03;7395371;19;20023;-87
2023/09/23 04:29:30;;;;;;;0.32;0.22;;;;;;;10.50;100.00;99410.84;7399078;19;20023;-87
2023/09/23 04:31:56;;;;;;;0.32;0.30;;;;;;;10.48;100.00;99405.72;7394553;19;20018;-88
2023/09/23 04:34:24;;;;;;;1.00;0.52;;;;;;;10.25;100.00;99415.03;7393687;19;20015;-87
2023/09/23 04:36:50;;;;;;;0.13;0.13;;;;;;;10.16;100.00;99412.34;7394746;19;20018;-87
2023/09/23 04:39:16;;;;;;;0.30;0.30;;;;;;;10.36;100.00;99415.19;7393930;19;20475;-86
2023/09/23 04:41:43;;;;;;;0.50;0.50;;;;;;;10.22;100.00;99413.19;7399032;19;20021;-87
2023/09/23 04:44:09;;;;;;;3.17;0.75;;;;;;;10.20;100.00;99412.91;7393636;19;20022;-87
2023/09/23 04:46:35;;;;;;;6.50;0.63;;;;;;;10.39;100.00;99414.22;7395974;19;20051;-87
2023/09/23 04:49:02;;;;;;;0.35;0.25;;;;;;;10.30;100.00;99417.13;7391239;19;20007;-87
2023/09/23 04:51:29;;;;;;;0.38;0.38;;;;;;;9.80;100.00;99423.91;7395698;19;20503;-87
2023/09/23 04:53:55;;;;;;;0.32;0.22;;;;;;;9.50;100.00;99411.25;7395991;19;20018;-87
2023/09/23 04:56:22;;;;;;;0.30;0.13;;;;;;;9.33;100.00;99418.53;7394865;19;20019;-87
2023/09/23 04:58:48;;;;;;;0.32;0.32;;;;;;;9.31;100.00;99416.25;7393616;19;20500;-87
2023/09/23 05:01:15;;;;;;;2.22;0.50;;;;;;;9.48;100.00;99413.75;7395185;19;20014;-87
2023/09/23 05:03:42;;;;;;;0.20;0.20;;;;;;;9.18;100.00;99414.97;7396025;19;20089;-87
2023/09/23 05:06:09;;;;;;;0.10;0.10;;;;;;;9.20;100.00;99426.38;7396198;19;20043;-87
2023/09/23 05:08:35;;;;;;;0.40;0.40;;;;;;;9.05;100.00;99420.78;7395464;19;20021;-87
2023/09/23 05:11:03;;;;;;;0.25;0.22;;;;;;;9.07;100.00;99419.03;7402976;19;20015;-87
2023/09/23 05:13:30;;;;;;;0.98;0.28;;;;;;;8.89;100.00;99424.75;7397091;19;20023;-87
2023/09/23 05:15:56;;;;;;;0.10;0.10;;;;;;;8.90;100.00;99429.06;7405417;19;20011;-86
2023/09/23 05:18:23;;;;;;;0.40;0.40;;;;;;;8.76;100.00;99443.69;7408785;19;20011;-87
2023/09/23 05:20:49;;;;;;;0.80;0.57;;;;;;;8.67;100.00;99449.28;7404101;19;20413;-86
2023/09/23 05:23:16;;;;;;;1.75;0.93;;;;;;;8.67;100.00;99449.28;7394044;19;20029;-87
2023/09/23 05:25:43;;;;;;;0.43;0.43;;;;;;;8.52;100.00;99451.22;7395618;19;20014;-87
2023/09/23 05:28:10;;;;;;;0.10;0.10;;;;;;;8.46;100.00;99455.88;7391650;19;20457;-87
2023/09/23 05:30:36;;;;;;;0.20;0.20;;;;;;;8.35;100.00;99458.41;7392088;19;20035;-87
2023/09/23 05:33:03;;;;;;;0.88;0.88;;;;;;;8.30;100.00;99456.28;7392299;19;20047;-88
2023/09/23 05:35:29;;;;;;;0.20;0.20;;;;;;;8.35;100.00;99452.88;7395298;19;20338;-89
2023/09/23 05:37:55;;;;;;;0.28;0.28;;;;;;;8.19;100.00;99456.75;7393456;19;20094;-88
2023/09/23 05:40:27;;;;;;;0.52;0.52;;;;;;;8.09;100.00;99457.25;7392313;19;20011;-88
2023/09/23 05:42:54;;;;;;;0.50;0.50;;;;;;;8.48;100.00;99472.84;7391140;19;20488;-88
2023/09/23 05:45:24;;;;;;;1.42;0.52;;;;;;;8.23;100.00;99476.00;7385492;19;20021;-87
2023/09/23 05:47:52;;;;;;;0.20;0.20;;;;;;;8.55;100.00;99483.59;7387897;19;20020;-87
2023/09/23 05:50:20;;;;;;;0.40;0.30;;;;;;;8.44;100.00;99483.34;7390066;19;20021;-88
2023/09/23 05:52:47;;;;;;;0.57;0.52;;;;;;;8.35;100.00;99491.69;7391804;19;20086;-88
2023/09/23 05:55:14;;;;;;;0.22;0.20;;;;;;;8.40;100.00;99488.31;7394993;19;20019;-88
2023/09/23 05:57:41;;;;;;;1.05;0.52;;;;;;;7.84;100.00;99494.44;7393727;19;20018;-88
2023/09/23 06:00:08;;;;;;;0.77;0.75;;;;;;;8.60;100.00;99504.41;7394648;19;20018;-87
2023/09/23 06:02:35;;;;;;;1.85;0.90;;;;;;;10.01;100.00;99499.84;7394797;19;20022;-88
2023/09/23 06:05:02;;;;;;;0.50;0.50;;;;;;;11.13;100.00;99492.69;7391372;19;20014;-88
2023/09/23 06:07:28;;;;;;;0.65;0.30;;;;;;;11.68;100.00;99486.97;7395133;19;20026;-88
2023/09/23 06:09:59;;;;;;;0.30;0.30;;;;;;;11.74;100.00;99496.16;7392055;19;20356;-88
2023/09/23 06:12:29;;;;;;;0.40;0.40;;;;;;;12.13;100.00;99489.69;7392165;19;20752;-88
2023/09/23 06:15:00;;;;;;;0.40;0.40;;;;;;;11.89;100.00;99497.59;7390063;19;20011;-88
2023/09/23 06:17:27;;;;;;;0.50;0.50;;;;;;;11.93;100.00;99498.13;7396918;19;20018;-88
2023/09/23 06:19:56;;;;;;;0.60;0.60;;;;;;;11.98;100.00;99505.00;7392687;19;20018;-86
2023/09/23 06:22:23;;;;;;;0.35;0.35;;;;;;;12.02;100.00;99511.91;7391718;19;20006;-87
2023/09/23 06:24:50;;;;;;;1.20;0.80;;;;;;;11.96;100.00;99519.47;7392716;19;20031;-87
2023/09/23 06:27:17;;;;;;;0.60;0.60;;;;;;;11.90;100.00;99515.09;7391052;19;20014;-87
2023/09/23 06:29:44;;;;;;;0.43;0.43;;;;;;;12.05;100.00;99522.09;7397087;19;20015;-84
2023/09/23 06:32:10;;;;;;;0.47;0.47;;;;;;;12.18;100.00;99527.28;7391985;19;20035;-87
2023/09/23 06:34:36;;;;;;;0.30;0.30;;;;;;;12.32;100.00;99539.59;7390735;19;20037;-87
2023/09/23 06:37:03;;;;;;;0.65;0.65;;;;;;;12.42;100.00;99543.72;7389814;19;20492;-86
2023/09/23 06:39:29;;;;;;;0.30;0.30;;;;;;;12.57;100.00;99549.94;7390460;19;20014;-86
2023/09/23 06:41:56;;;;;;;0.30;0.30;;;;;;;12.60;100.00;99548.97;7390642;19;20330;-86
2023/09/23 06:44:22;;;;;;;0.43;0.38;;;;;;;12.36;100.00;99546.47;7390303;19;20018;-86
2023/09/23 06:46:50;;;;;;;0.82;0.75;;;;;;;12.40;100.00;99557.41;7390717;19;20018;-85
2023/09/23 06:49:17;;;;;;;0.30;0.30;;;;;;;12.59;100.00;99564.16;7390891;19;20011;-86
2023/09/23 06:51:43;;;;;;;0.25;0.25;;;;;;;12.80;100.00;99563.56;7393805;19;20817;-86
2023/09/23 06:54:09;;;;;;;0.70;0.70;;;;;;;12.76;100.00;99565.06;7389677;19;20144;-84
2023/09/23 06:56:36;;;;;;;2.75;0.82;;;;;;;13.20;100.00;99570.97;7395076;19;20038;-88
2023/09/23 06:59:02;;;;;;;0.32;0.32;;;;;;;13.47;100.00;99575.91;7396562;19;20018;-87
2023/09/23 07:01:29;;;;;;;0.50;0.30;;;;;;;13.55;100.00;99567.81;7403411;19;20385;-86
2023/09/23 07:03:55;;;;;;;0.70;0.70;;;;;;;13.69;100.00;99581.59;7395532;19;20027;-86
2023/09/23 07:06:21;;;;;;;0.70;0.57;;;;;;;14.14;100.00;99576.13;7398137;19;20500;-86
2023/09/23 07:08:47;;;;;;;0.13;0.13;;;;;;;14.35;100.00;99591.47;7394511;19;20019;-87
2023/09/23 07:11:14;;;;;;;0.20;0.20;;;;;;;14.28;100.00;99583.53;7399368;19;20022;-86
2023/09/23 07:13:40;;;;;;;0.95;0.85;;;;;;;14.19;100.00;99589.38;7397510;19;20016;-87
2023/09/23 07:16:12;;;;;;;6.85;1.15;;;;;;;10.96;100.00;99600.38;7400676;19;20098;-83
2023/09/23 07:18:38;;;;;;;0.38;0.38;;;;;;;13.18;100.00;99593.06;7396341;19;20014;-83
2023/09/23 07:21:04;;;;;;;0.88;0.88;;;;;;;13.43;100.00;99597.00;7398738;19;20098;-83
2023/09/23 07:23:30;;;;;;;0.98;0.40;;;;;;;10.24;100.00;99591.63;7393441;19;20718;-83
2023/09/23 07:25:56;;;;;;;4.03;0.45;;;;;;;9.66;100.00;99603.38;7396807;19;20019;-85
2023/09/23 07:28:22;;;;;;;1.13;0.50;;;;;;;11.34;100.00;99594.56;7391894;19;20022;-83
2023/09/23 07:30:49;;;;;;;0.40;0.40;;;;;;;13.22;100.00;99593.59;7392564;19;20041;-84
2023/09/23 07:33:15;;;;;;;0.45;0.30;;;;;;;10.81;100.00;99605.16;7390793;19;20091;-84
2023/09/23 07:35:42;;;;;;;0.82;0.63;;;;;;;11.62;100.00;99594.91;7397257;19;20802;-84
2023/09/23 07:38:08;;;;;;;0.57;0.57;;;;;;;13.51;100.00;99604.41;7389068;19;20760;-83
2023/09/23 07:40:38;;;;;;;0.50;0.50;;;;;;;10.38;100.00;99612.31;7386756;19;20027;-83
2023/09/23 07:43:05;;;;;;;0.17;0.17;;;;;;;9.72;100.00;99620.19;7386701;19;20014;-84
2023/09/23 07:45:31;;;;;;;1.55;0.47;;;;;;;11.84;100.00;99614.72;7391095;19;20018;-84
2023/09/23 07:47:57;;;;;;;0.52;0.40;;;;;;;14.53;100.00;99610.56;7390462;19;20033;-84
2023/09/23 07:50:23;;;;;;;0.28;0.20;;;;;;;11.69;100.00;99619.63;7396772;19;20345;-83
2023/09/23 07:52:49;;;;;;;0.30;0.30;;;;;;;10.11;100.00;99627.28;7394478;19;20019;-83
2023/09/23 07:55:16;;;;;;;0.82;0.28;;;;;;;14.86;100.00;99624.59;7395354;19;20019;-84
2023/09/23 07:57:42;;;;;;;0.30;0.22;;;;;;;15.73;100.00;99621.38;7394620;19;20018;-84
2023/09/23 08:00:08;;;;;;;0.65;0.40;;;;;;;14.13;100.00;99627.81;7397992;19;20092;-83
2023/09/23 08:02:37;;;;;;;0.30;0.30;;;;;;;16.20;100.00;99627.78;7394926;19;20045;-83
2023/09/23 08:05:04;;;;;;;0.13;0.13;;;;;;;16.71;100.00;99641.00;7394367;19;20400;-84
2023/09/23 08:07:31;;;;;;;2.22;0.82;;;;;;;16.55;100.00;99644.69;7393077;19;20438;-83
2023/09/23 08:09:57;;;;;;;0.10;0.10;;;;;;;16.36;100.00;99643.78;7397318;19;20028;-84
2023/09/23 08:12:23;;;;;;;0.15;0.10;;;;;;;14.20;100.00;99647.69;7395860;19;20018;-83
2023/09/23 08:14:50;;;;;;;0.30;0.30;;;;;;;13.34;100.00;99650.38;7396503;19;20523;-84
2023/09/23 08:17:17;;;;;;;0.20;0.20;;;;;;;15.20;100.00;99650.59;7397495;19;20475;-83
2023/09/23 08:19:44;;;;;;;0.47;0.43;;;;;;;12.43;100.00;99662.56;7393891;19;20017;-84
2023/09/23 08:22:10;;;;;;;9.43;0.47;;;;;;;14.33;100.00;99661.25;7392653;19;20010;-83
2023/09/23 08:24:37;;;;;;;0.25;0.25;;;;;;;11.41;100.00;99675.00;7392615;19;20011;-86
2023/09/23 08:27:04;;;;;;;0.10;0.10;;;;;;;10.90;100.00;99681.06;7392676;19;20010;-85
2023/09/23 08:29:30;;;;;;;0.10;0.10;;;;;;;10.61;100.00;99686.66;7398816;19;20466;-85
2023/09/23 08:31:56;;;;;;;0.85;0.40;;;;;;;10.38;100.00;99693.81;7393500;19;20568;-84
2023/09/23 08:34:24;;;;;;;0.10;0.10;;;;;;;10.53;100.00;99697.38;7394313;19;20033;-85
2023/09/23 08:36:52;;;;;;;0.10;0.10;;;;;;;10.77;100.00;99699.31;7398438;19;20014;-84
2023/09/23 08:39:18;;;;;;;0.30;0.20;;;;;;;10.48;100.00;99703.63;7394564;19;21074;-85
2023/09/23 08:41:53;;;;;;;0.10;0.10;;;;;;;10.66;100.00;99703.44;7396856;19;20489;-84
2023/09/23 08:44:24;;;;;;;0.10;0.10;;;;;;;10.46;100.00;99708.91;7391168;19;20087;-84
2023/09/23 08:46:52;;;;;;;0.20;0.20;;;;;;;15.41;100.00;99701.56;7393062;19;20038;-84
2023/09/23 08:49:21;;;;;;;0.13;0.13;;;;;;;12.51;100.00;99697.16;7393248;19;20022;-83
2023/09/23 08:51:51;;;;;;;0.55;0.43;;;;;;;11.43;100.00;99706.72;7394594;19;20011;-82
2023/09/23 08:54:21;;;;;;;0.10;0.10;;;;;;;15.96;100.00;99700.69;7391329;19;20019;-84
2023/09/23 08:56:48;;;;;;;0.10;0.10;;;;;;;17.69;100.00;99702.56;7393019;19;20018;-84
2023/09/23 08:59:14;;;;;;;0.55;0.22;;;;;;;18.27;100.00;99702.13;7392323;19;20015;-83
2023/09/23 09:01:42;;;;;;;0.25;0.25;;;;;;;13.87;100.00;99708.38;7393660;19;20146;-87
2023/09/23 09:04:08;;;;;;;0.30;0.30;;;;;;;12.94;100.00;99710.81;7394054;19;20010;-85
2023/09/23 09:06:34;;;;;;;0.52;0.20;;;;;;;17.73;100.00;99705.09;7392583;19;20015;-86
2023/09/23 09:09:02;;;;;;;0.47;0.47;;;;;;;18.53;100.00;99713.59;7392259;19;20018;-86
2023/09/23 09:11:28;;;;;;;0.90;0.28;;;;;;;18.46;100.00;99708.56;7392218;19;20051;-85
2023/09/23 09:13:54;;;;;;;0.38;0.32;;;;;;;18.51;100.00;99716.19;7389115;19;20030;-84
2023/09/23 09:16:21;;;;;;;1.00;0.50;;;;;;;18.45;100.00;99729.63;7396858;19;20015;-83
2023/09/23 09:18:51;;;;;;;0.10;0.10;;;;;;;18.36;100.00;99718.69;7393225;19;20018;-83
2023/09/23 09:21:17;;;;;;;0.10;0.10;;;;;;;18.46;100.00;99726.25;7396983;19;20010;-83
2023/09/23 09:23:43;;;;;;;0.70;0.70;;;;;;;15.10;100.00;99739.84;7392467;19;20418;-84
2023/09/23 09:26:09;;;;;;;0.45;0.28;;;;;;;16.85;100.00;99734.75;7391809;19;20026;-79
2023/09/23 09:28:36;;;;;;;0.20;0.15;;;;;;;15.09;100.00;99749.50;7392205;19;20050;-77
2023/09/23 09:31:05;;;;;;;1.35;0.52;;;;;;;16.80;100.00;99743.97;7392359;19;20022;-78
2023/09/23 09:33:36;;;;;;;0.20;0.10;;;;;;;15.75;100.00;99753.56;7390865;19;20023;-78
2023/09/23 09:36:02;;;;;;;0.20;0.20;;;;;;;16.44;100.00;99745.94;7390131;19;20010;-79
2023/09/23 09:38:33;;;;;;;0.73;0.30;;;;;;;16.40;100.00;99751.84;7388377;19;20523;-79
2023/09/23 09:41:04;;;;;;;0.20;0.10;;;;;;;16.89;100.00;99735.22;7395449;19;20047;-79
2023/09/23 09:43:33;;;;;;;0.55;0.20;;;;;;;17.37;100.00;99741.75;7391820;19;20010;-79
2023/09/23 09:46:08;;;;;;;1.08;0.25;;;;;;;15.69;100.00;99752.84;7391644;19;20377;-79
2023/09/23 09:48:39;;;;;;;4.22;0.73;;;;;;;16.81;100.00;99748.31;7391461;19;20042;-81
2023/09/23 09:51:07;;;;;;;0.40;0.20;;;;;;;19.14;100.00;99744.50;7394286;19;20050;-82
2023/09/23 09:53:36;;;;;;;0.10;0.10;;;;;;;16.98;100.00;99746.19;7390846;19;20025;-81
2023/09/23 09:56:07;;;;;;;3.40;0.68;;;;;;;17.19;100.00;99753.69;7389838;19;20042;-81
2023/09/23 09:58:37;;;;;;;0.30;0.30;;;;;;;15.54;100.00;99758.72;7395418;19;20026;-80
2023/09/23 10:01:04;;;;;;;0.65;0.50;;;;;;;18.67;100.00;99754.69;7391461;19;20039;-81
2023/09/23 10:03:30;;;;;;;4.15;0.73;;;;;;;19.41;100.00;99763.06;7392681;19;20022;-82
2023/09/23 10:06:00;;;;;;;0.20;0.10;;;;;;;19.77;100.00;99759.91;7393423;19;20023;-81
2023/09/23 10:08:35;;;;;;;0.10;0.10;;;;;;;19.72;100.00;99772.06;7391603;19;20019;-81
2023/09/23 10:11:04;;;;;;;0.43;0.28;;;;;;;18.18;100.00;99763.25;7395749;19;20357;-82
2023/09/23 10:13:33;;;;;;;1.95;0.15;;;;;;;18.16;100.00;99754.56;7392447;19;20366;-82
2023/09/23 10:16:12;;;;;;;0.10;0.00;;;;;;;15.08;100.00;99769.66;7389934;19;20057;-82
2023/09/23 10:18:40;;;;;;;1.20;0.32;;;;;;;16.98;100.00;99760.25;7390405;19;20038;-82
2023/09/23 10:21:08;;;;;;;0.10;0.08;;;;;;;17.10;100.00;99756.81;7391811;19;20019;-82
2023/09/23 10:23:39;;;;;;;0.15;0.10;;;;;;;17.27;100.00;99765.13;7392281;19;20014;-81
2023/09/23 10:26:18;;;;;;;5.82;0.50;;;;;;;20.21;100.00;99764.72;7388958;19;20094;-82
2023/09/23 10:29:05;;;;;;;4.75;0.30;;;;;;;19.88;100.00;99777.41;7388130;19;20048;-82
2023/09/23 10:31:33;;;;;;;0.52;0.52;;;;;;;19.33;100.00;99776.28;7387573;19;20460;-82
2023/09/23 10:34:06;;;;;;;0.20;0.20;;;;;;;15.00;100.00;99777.81;7389601;19;20018;-82
2023/09/23 10:36:33;;;;;;;0.15;0.15;;;;;;;19.30;100.00;99774.53;7387349;19;20022;-81
2023/09/23 10:39:06;;;;;;;0.63;0.47;;;;;;;20.36;100.00;99776.25;7389435;19;20046;-81
2023/09/23 10:41:34;;;;;;;0.45;0.45;;;;;;;21.31;100.00;99766.44;7389693;19;20014;-81
2023/09/23 10:44:02;;;;;;;0.40;0.40;;;;;;;21.49;100.00;99771.13;7389399;19;20117;-81
2023/09/23 10:46:30;;;;;;;0.38;0.32;;;;;;;19.38;100.00;99764.13;7392008;19;20516;-81
2023/09/23 10:48:56;;;;;;;0.10;0.10;;;;;;;19.74;100.00;99772.28;7389244;19;20014;-81
2023/09/23 10:51:23;;;;;;;0.10;0.10;;;;;;;19.40;100.00;99777.75;7391259;19;20035;-81
2023/09/23 10:53:52;;;;;;;0.10;0.10;;;;;;;18.30;100.00;99769.50;7390202;19;20022;-81
2023/09/23 10:56:22;;;;;;;0.10;0.10;;;;;;;20.87;100.00;99771.81;7390292;19;20014;-81
2023/09/23 10:58:51;;;;;;;0.10;0.03;;;;;;;21.25;100.00;99777.13;7392540;19;20031;-81
2023/09/23 11:01:21;;;;;;;0.45;0.10;;;;;;;20.35;100.00;99778.31;7387526;19;20033;-81
2023/09/23 11:03:47;;;;;;;0.63;0.38;;;;;;;20.40;100.00;99776.66;7387679;19;20014;-82
2023/09/23 11:06:16;;;;;;;0.22;0.10;;;;;;;20.11;100.00;99778.53;7389181;19;20352;-81
2023/09/23 11:08:42;;;;;;;1.02;0.30;;;;;;;20.79;100.00;99776.59;7384452;19;20022;-81
2023/09/23 11:11:11;;;;;;;0.13;0.13;;;;;;;20.57;100.00;99771.44;7391471;19;20034;-81
2023/09/23 11:13:37;;;;;;;0.30;0.30;;;;;;;20.55;100.00;99788.22;7389249;19;20055;-81
2023/09/23 11:16:10;;;;;;;0.10;0.10;;;;;;;19.11;100.00;99785.09;7388223;19;20013;-81
2023/09/23 11:18:37;;;;;;;1.20;0.60;;;;;;;20.17;100.00;99792.53;7389963;19;20557;-81
2023/09/23 11:21:03;;;;;;;0.22;0.00;;;;;;;20.08;100.00;99790.13;7389066;19;20015;-81
2023/09/23 11:23:29;;;;;;;0.10;0.10;;;;;;;20.26;100.00;99790.06;7390350;19;20371;-81
2023/09/23 11:25:56;;;;;;;0.63;0.35;;;;;;;20.39;100.00;99787.25;7389724;19;20015;-81
2023/09/23 11:28:24;;;;;;;1.23;0.03;;;;;;;20.48;100.00;99791.69;7387655;19;20018;-81
2023/09/23 11:30:52;;;;;;;0.20;0.20;;;;;;;20.60;100.00;99800.69;7387521;19;20018;-81